You are not logged in, Click here to log in
南紀白濱機場SHM / RJBD 日本和歌山縣西牟婁郡白濱町2926番地,由和歌山縣管理,屬第三種空港
ICAO: RJBD Country: 日本和歌山縣西牟婁郡白濱町2926番地,由和歌山縣管理,屬第三種空港
Latitude: 33.6622 Longitude: 135.364
Total Arrivals: 2 Total Departures: 1
Latest Arrival: GC10 (RJOR-RJBD)冠鈞. 黃 Latest Departure: GC6 (RJBD-RJAA)KE. CHIH-HAO
Scenery:
METAR : RJBD 211000Z 34008KT 9999 FEW030 08/M01 Q1026

南紀白濱機場SHM

You are accessing this site from IP address 18.206.12.79. Virtual Airline. CMS by phpVMS.Website designed by Zumeweb and edited by Theo Bearman.
There is 1 User(s) Online: | Lun Wang | and 11 Guest(s) Online.
All information on this site is for fight simulation purposes only. This site is for flight logging for pilots of Virtual Airline&模擬飛行論壇 FlySim only.